Rochester, Texas
Current Conditions -  °F | °C
As of 9:58 PM on Sunday 21 Dec 2014 (Local Time) from KDYS Reporting Station
Clear Clear  
Wind Chill: 12°   Ceiling: Unl
Heat Index: 12°   Visibility: 10mi
Dew Point:   Wind: 22mph
Humidity: 65%   Direction: 210°SSW
Pressure: 29.67"   Gusts: NA
Location:  33.32°N, 99.86°W
Report Text: KDYS 220358Z AUTO 21019KT 10SM CLR 12/06 A2967 RMK AO2 SLP033 T01190056 $
Loading
Personal Weather Stations






























Interactive Weather Map New forecast layout! Learn more

10-Day Weather Forecast

Advertisements
Track Severe Weather on mobile